Time;durP1;ratioP1;P1;durP2;ratioP2;P2;SDS_P1;SDS_P2;PMS_P1;PMS_P2;Temp;Humidity;BMP_temperature;BMP_pressure;BME280_temperature;BME280_humidity;BME280_pressure;Samples;Min_cycle;Max_cycle;Signal;HPM_P1;HPM_P2
2022/09/20 00:02:49;;;;;;;0.83;0.83;;;11.10;95.10;;;;;;6132937;29;20490;-68
2022/09/20 00:05:52;;;;;;;3.27;1.17;;;11.10;95.20;;;;;;6129999;29;20893;-67
2022/09/20 00:08:58;;;;;;;3.93;1.40;;;11.10;95.20;;;;;;6130109;29;20444;-67
2022/09/20 00:12:02;;;;;;;1.33;1.17;;;11.10;95.30;;;;;;6130506;29;20464;-66
2022/09/20 00:15:06;;;;;;;1.17;1.00;;;11.10;95.30;;;;;;6131090;29;20463;-67
2022/09/20 00:18:09;;;;;;;1.73;1.27;;;11.10;95.50;;;;;;6131201;29;20479;-66
2022/09/20 00:21:16;;;;;;;1.10;1.00;;;11.10;95.40;;;;;;6131814;29;20482;-67
2022/09/20 00:24:21;;;;;;;1.43;1.07;;;11.00;95.60;;;;;;6118162;29;20499;-67
2022/09/20 00:27:24;;;;;;;1.10;1.00;;;11.00;95.80;;;;;;6131720;28;20482;-67
2022/09/20 00:30:28;;;;;;;0.83;0.80;;;11.10;95.90;;;;;;6131562;29;20475;-67
2022/09/20 00:36:48;;;;;;;1.30;1.20;;;10.90;96.40;;;;;;6131353;29;20696;-67
2022/09/20 00:39:52;;;;;;;1.27;1.17;;;11.00;96.50;;;;;;6127950;29;20490;-66
2022/09/20 00:42:55;;;;;;;2.63;1.97;;;11.00;96.60;;;;;;6127636;29;20542;-67
2022/09/20 00:45:59;;;;;;;3.50;1.13;;;11.00;96.70;;;;;;6131004;28;20480;-67
2022/09/20 00:49:11;;;;;;;1.27;1.00;;;11.10;97.20;;;;;;6128589;29;20463;-67
2022/09/20 00:52:16;;;;;;;3.10;1.30;;;11.10;97.10;;;;;;6129500;28;20515;-67
2022/09/20 00:55:22;;;;;;;2.13;1.30;;;11.10;97.20;;;;;;6130210;29;20476;-68
2022/09/20 00:58:28;;;;;;;1.73;1.30;;;11.10;96.90;;;;;;6126381;29;20994;-67
2022/09/20 01:01:31;;;;;;;4.53;1.00;;;11.10;97.00;;;;;;6129341;29;20475;-67
2022/09/20 01:04:38;;;;;;;0.97;0.80;;;11.10;97.00;;;;;;6130473;29;20480;-67
2022/09/20 01:07:43;;;;;;;1.13;1.00;;;11.00;97.00;;;;;;6131620;29;20787;-67
2022/09/20 01:10:47;;;;;;;2.53;1.30;;;11.00;97.10;;;;;;6130846;29;20980;-67
2022/09/20 01:13:50;;;;;;;1.97;1.40;;;11.00;97.30;;;;;;6131367;29;20562;-67
2022/09/20 01:16:57;;;;;;;1.70;1.60;;;11.00;97.30;;;;;;6130850;29;20615;-67
2022/09/20 01:20:14;;;;;;;1.40;1.30;;;11.10;97.40;;;;;;6131001;29;20484;-68
2022/09/20 01:23:46;;;;;;;2.40;1.57;;;11.00;97.40;;;;;;6130986;29;20483;-67
2022/09/20 01:27:05;;;;;;;3.47;2.17;;;11.00;97.70;;;;;;6107115;29;20457;-67
2022/09/20 01:30:14;;;;;;;2.30;2.07;;;11.00;97.80;;;;;;6107332;29;20496;-68
2022/09/20 01:33:28;;;;;;;2.00;1.17;;;10.90;97.80;;;;;;6107039;29;20977;-68
2022/09/20 01:36:37;;;;;;;1.00;0.83;;;10.80;98.20;;;;;;6107351;29;20473;-68
2022/09/20 01:39:50;;;;;;;1.60;1.50;;;10.70;98.40;;;;;;6106613;29;20489;-68
2022/09/20 01:43:02;;;;;;;1.63;1.33;;;10.80;98.70;;;;;;6106556;29;20490;-68
2022/09/20 01:46:21;;;;;;;2.00;1.10;;;10.80;98.80;;;;;;6106731;29;20480;-67
2022/09/20 01:49:32;;;;;;;1.80;1.40;;;10.80;98.80;;;;;;6106965;29;20480;-67
2022/09/20 01:53:06;;;;;;;1.40;1.30;;;10.90;98.80;;;;;;6106885;29;20485;-67
2022/09/20 01:56:39;;;;;;;0.93;0.90;;;11.00;98.80;;;;;;6106339;29;20476;-67
2022/09/20 02:00:07;;;;;;;2.30;1.30;;;11.00;98.70;;;;;;6106782;29;20569;-67
2022/09/20 02:03:51;;;;;;;1.30;1.20;;;11.00;98.70;;;;;;6130167;28;20467;-68
2022/09/20 02:07:20;;;;;;;1.10;1.00;;;11.00;98.60;;;;;;6130136;29;20542;-68
2022/09/20 02:10:42;;;;;;;1.53;1.20;;;11.00;98.60;;;;;;6129901;28;20507;-68
2022/09/20 02:14:04;;;;;;;0.90;0.80;;;11.10;98.50;;;;;;6129670;28;20531;-67
2022/09/20 02:17:13;;;;;;;1.23;0.90;;;11.10;98.50;;;;;;6129456;28;20472;-67
2022/09/20 02:20:31;;;;;;;1.60;1.30;;;11.10;98.50;;;;;;6129709;28;20539;-67
2022/09/20 02:23:47;;;;;;;1.70;1.10;;;11.20;98.70;;;;;;6129935;28;20476;-67
2022/09/20 02:27:05;;;;;;;1.70;1.40;;;11.20;98.70;;;;;;6130056;28;20748;-66
2022/09/20 02:30:19;;;;;;;1.10;1.00;;;11.20;98.70;;;;;;6125478;28;20472;-66
2022/09/20 02:33:44;;;;;;;1.70;0.90;;;11.10;98.60;;;;;;6129698;28;20487;-66
2022/09/20 02:36:56;;;;;;;3.33;1.33;;;11.10;98.60;;;;;;6129910;28;20475;-66
2022/09/20 02:40:13;;;;;;;3.63;1.90;;;11.00;98.70;;;;;;6129478;28;20480;-66
2022/09/20 02:43:25;;;;;;;2.90;2.20;;;11.10;98.80;;;;;;6129135;28;20479;-66
2022/09/20 02:46:35;;;;;;;2.30;1.60;;;11.10;98.80;;;;;;6129535;28;20514;-66
2022/09/20 02:49:53;;;;;;;2.37;2.07;;;11.00;98.70;;;;;;6129543;28;20833;-67
2022/09/20 02:53:12;;;;;;;2.73;1.63;;;11.00;98.90;;;;;;6129073;28;20483;-68
2022/09/20 02:56:22;;;;;;;2.20;1.60;;;11.00;99.30;;;;;;6129557;28;20490;-65
2022/09/20 02:59:32;;;;;;;2.33;1.60;;;11.00;99.30;;;;;;6129184;28;20471;-66
2022/09/20 03:02:50;;;;;;;2.23;1.40;;;10.80;99.50;;;;;;6129516;28;20486;-65
2022/09/20 03:06:01;;;;;;;2.83;1.80;;;10.80;99.70;;;;;;6128310;28;20467;-66
2022/09/20 03:09:16;;;;;;;3.07;1.63;;;10.80;99.70;;;;;;6110067;29;20425;-66
2022/09/20 03:12:33;;;;;;;2.30;2.00;;;10.80;99.80;;;;;;6110013;29;20487;-67
2022/09/20 03:15:48;;;;;;;3.40;2.20;;;10.80;99.90;;;;;;6110401;29;20528;-67
2022/09/20 03:19:03;;;;;;;3.33;1.20;;;10.80;99.90;;;;;;6110311;29;20832;-67
2022/09/20 03:22:18;;;;;;;4.83;1.20;;;10.80;99.90;;;;;;6110845;29;20618;-67
2022/09/20 03:25:39;;;;;;;3.50;1.10;;;10.70;99.90;;;;;;6110327;29;20481;-67
2022/09/20 03:28:57;;;;;;;1.33;0.90;;;10.70;99.90;;;;;;6110374;28;20485;-67
2022/09/20 03:32:17;;;;;;;1.20;1.10;;;10.70;99.90;;;;;;6109980;29;20488;-67
2022/09/20 03:35:33;;;;;;;1.53;1.00;;;10.80;99.90;;;;;;6109988;29;20485;-67
2022/09/20 03:38:54;;;;;;;1.93;1.20;;;10.70;99.90;;;;;;6109690;29;20485;-67
2022/09/20 03:42:15;;;;;;;1.37;1.27;;;10.70;99.90;;;;;;6109816;28;20494;-66
2022/09/20 03:45:32;;;;;;;2.57;1.10;;;10.70;99.90;;;;;;6109750;29;20480;-65
2022/09/20 03:49:06;;;;;;;2.40;1.10;;;10.70;99.90;;;;;;6109873;29;20483;-65
2022/09/20 03:52:27;;;;;;;1.67;1.53;;;10.70;99.90;;;;;;6109057;29;20484;-65
2022/09/20 03:55:46;;;;;;;2.60;1.30;;;10.70;99.90;;;;;;6109022;29;20469;-65
2022/09/20 03:59:09;;;;;;;1.97;1.60;;;10.70;99.90;;;;;;6109745;29;20843;-66
2022/09/20 04:02:29;;;;;;;1.50;1.40;;;10.70;99.90;;;;;;6109375;29;20842;-65
2022/09/20 04:05:45;;;;;;;2.00;1.47;;;10.70;99.90;;;;;;6109110;29;20567;-66
2022/09/20 04:09:04;;;;;;;2.50;1.73;;;10.50;99.90;;;;;;6109277;28;20453;-65
2022/09/20 04:12:19;;;;;;;1.43;1.33;;;10.40;99.90;;;;;;6109278;29;20536;-65
2022/09/20 04:15:36;;;;;;;2.00;1.33;;;10.50;99.90;;;;;;6109279;29;20694;-66
2022/09/20 04:18:45;;;;;;;2.00;1.17;;;10.60;99.90;;;;;;6108325;29;20973;-65
2022/09/20 04:21:55;;;;;;;3.27;1.47;;;10.50;99.90;;;;;;6109059;29;20864;-64
2022/09/20 04:25:04;;;;;;;4.80;1.30;;;10.50;99.90;;;;;;6108861;29;20491;-64
2022/09/20 04:28:12;;;;;;;2.00;1.40;;;10.50;99.90;;;;;;6108888;29;20472;-66
2022/09/20 04:31:30;;;;;;;2.90;1.30;;;10.60;99.90;;;;;;6108840;29;20509;-66
2022/09/20 04:38:04;;;;;;;2.23;1.40;;;10.70;99.90;;;;;;6100260;29;20496;-66
2022/09/20 04:41:54;;;;;;;4.33;0.90;;;10.70;99.90;;;;;;6108419;28;20508;-66
2022/09/20 04:45:31;;;;;;;1.40;1.30;;;10.80;99.90;;;;;;6091297;28;20473;-66
2022/09/20 04:49:01;;;;;;;2.27;2.07;;;10.80;99.90;;;;;;6108699;29;20475;-66
2022/09/20 04:52:49;;;;;;;3.87;3.57;;;10.70;99.90;;;;;;6108239;29;20472;-65
2022/09/20 04:55:55;;;;;;;4.03;3.77;;;10.60;99.90;;;;;;6108247;28;20492;-65
2022/09/20 04:59:07;;;;;;;8.87;8.03;;;10.60;99.90;;;;;;6108269;29;20465;-66
2022/09/20 05:02:49;;;;;;;7.40;4.30;;;10.60;99.90;;;;;;6108770;28;20489;-66
2022/09/20 05:06:14;;;;;;;3.50;3.20;;;10.50;99.90;;;;;;6108371;28;20766;-66
2022/09/20 05:10:06;;;;;;;3.03;2.83;;;10.50;99.90;;;;;;6107955;29;20472;-66
2022/09/20 05:13:27;;;;;;;4.27;3.13;;;10.40;99.90;;;;;;6107363;28;20487;-67
2022/09/20 05:16:49;;;;;;;2.90;2.60;;;10.50;99.90;;;;;;6108064;29;20480;-66
2022/09/20 05:20:14;;;;;;;4.40;2.40;;;10.50;99.90;;;;;;6107529;29;20484;-66
2022/09/20 05:23:46;;;;;;;4.90;2.73;;;10.50;99.90;;;;;;6107901;29;20477;-66
2022/09/20 05:27:03;;;;;;;9.10;2.80;;;10.70;99.90;;;;;;6103029;28;20478;-66
2022/09/20 05:30:14;;;;;;;4.40;2.50;;;10.70;99.90;;;;;;6107187;29;20441;-66
2022/09/20 05:33:23;;;;;;;3.60;2.37;;;10.80;99.90;;;;;;6106799;28;20472;-67
2022/09/20 05:36:36;;;;;;;6.97;3.00;;;11.00;99.90;;;;;;6107444;29;20468;-66
2022/09/20 05:39:45;;;;;;;2.77;2.57;;;11.10;99.90;;;;;;6098563;29;20974;-66
2022/09/20 05:42:55;;;;;;;3.60;2.00;;;11.30;99.90;;;;;;6106771;28;20480;-66
2022/09/20 05:46:16;;;;;;;4.03;2.50;;;11.40;99.90;;;;;;6106869;29;20535;-66
2022/09/20 05:49:35;;;;;;;7.60;3.37;;;11.60;99.90;;;;;;6107850;29;20480;-66
2022/09/20 05:52:49;;;;;;;5.40;2.73;;;11.60;99.90;;;;;;6106787;29;20821;-66
2022/09/20 05:56:02;;;;;;;5.90;2.77;;;11.60;99.90;;;;;;6106797;29;20544;-66
2022/09/20 05:59:22;;;;;;;3.60;2.43;;;11.70;99.90;;;;;;6106430;29;20999;-66
2022/09/20 06:02:38;;;;;;;5.50;2.47;;;11.70;99.90;;;;;;6106251;29;20992;-65
2022/09/20 06:05:53;;;;;;;2.80;2.00;;;11.80;99.90;;;;;;6106778;29;20485;-67
2022/09/20 06:09:33;;;;;;;5.33;2.30;;;11.90;99.90;;;;;;6106100;28;20473;-65
2022/09/20 06:12:51;;;;;;;2.40;2.13;;;11.90;99.90;;;;;;6059110;29;20614;-66
2022/09/20 06:15:59;;;;;;;2.67;2.10;;;11.90;99.90;;;;;;6106870;29;20846;-69
2022/09/20 06:19:16;;;;;;;3.77;2.20;;;11.90;99.90;;;;;;6107812;29;20856;-69
2022/09/20 06:22:24;;;;;;;4.13;2.07;;;11.90;99.90;;;;;;6106589;29;20484;-65
2022/09/20 06:25:32;;;;;;;2.30;2.10;;;12.00;99.90;;;;;;6106377;29;20476;-65
2022/09/20 06:28:41;;;;;;;6.13;2.60;;;12.00;99.90;;;;;;6106432;29;20539;-68
2022/09/20 06:31:44;;;;;;;7.53;3.10;;;12.10;99.90;;;;;;6106489;29;20480;-66
2022/09/20 06:34:48;;;;;;;3.63;2.30;;;12.20;99.90;;;;;;6106871;29;20969;-68
2022/09/20 06:41:27;;;;;;;4.23;2.50;;;12.30;99.90;;;;;;6105503;29;20493;-67
2022/09/20 06:44:31;;;;;;;3.63;2.60;;;12.70;99.90;;;;;;6105526;29;20491;-68
2022/09/20 06:47:35;;;;;;;3.30;2.20;;;13.00;99.60;;;;;;6105916;29;20473;-65
2022/09/20 06:50:42;;;;;;;4.17;2.13;;;13.20;98.90;;;;;;6105602;29;20563;-66
2022/09/20 06:53:45;;;;;;;5.63;2.77;;;13.40;98.50;;;;;;6106013;29;20472;-66
2022/09/20 06:56:50;;;;;;;2.90;2.60;;;13.70;98.40;;;;;;6105695;28;20485;-66
2022/09/20 06:59:54;;;;;;;3.70;3.13;;;14.10;97.40;;;;;;6105455;28;20456;-66
2022/09/20 07:02:57;;;;;;;2.47;2.13;;;14.60;97.00;;;;;;6105761;29;20544;-66
2022/09/20 07:06:01;;;;;;;2.30;1.43;;;16.60;95.40;;;;;;6106388;29;20949;-67
2022/09/20 07:09:05;;;;;;;1.50;1.20;;;19.00;88.60;;;;;;6105640;29;20460;-67
2022/09/20 07:12:11;;;;;;;2.07;1.30;;;19.50;78.70;;;;;;6105289;29;20235;-67
2022/09/20 07:15:15;;;;;;;2.40;1.60;;;20.50;75.90;;;;;;6105999;29;20689;-67
2022/09/20 07:18:19;;;;;;;2.03;1.40;;;23.80;64.60;;;;;;6105859;29;20228;-67
2022/09/20 07:21:22;;;;;;;4.53;1.00;;;24.20;53.00;;;;;;6106568;29;20571;-66
2022/09/20 07:24:25;;;;;;;2.43;1.20;;;22.70;52.70;;;;;;6105371;29;20571;-67
2022/09/20 07:27:29;;;;;;;2.37;1.50;;;21.40;54.90;;;;;;6105380;29;20299;-67
2022/09/20 07:30:33;;;;;;;1.60;1.10;;;20.30;56.90;;;;;;6105367;29;20235;-68
2022/09/20 07:33:36;;;;;;;5.13;1.10;;;19.60;58.40;;;;;;6105104;29;20233;-68
2022/09/20 07:36:39;;;;;;;1.87;1.47;;;19.30;58.90;;;;;;6105415;29;20692;-68
2022/09/20 07:39:44;;;;;;;2.10;1.10;;;18.80;60.50;;;;;;6105504;29;20232;-68
2022/09/20 07:42:47;;;;;;;4.10;1.37;;;18.30;62.10;;;;;;6104883;29;20325;-66
2022/09/20 07:45:58;;;;;;;1.20;1.10;;;18.00;64.10;;;;;;6100632;29;20484;-67
2022/09/20 07:49:01;;;;;;;2.10;1.10;;;17.80;65.30;;;;;;6105157;29;20229;-66
2022/09/20 07:52:04;;;;;;;1.10;1.00;;;17.50;66.60;;;;;;6104087;29;20859;-67
2022/09/20 07:55:08;;;;;;;2.10;1.00;;;17.30;67.90;;;;;;6107334;29;20995;-67
2022/09/20 07:58:11;;;;;;;1.27;1.10;;;17.10;68.80;;;;;;6109638;29;20476;-67
2022/09/20 08:01:16;;;;;;;2.20;1.10;;;17.00;69.00;;;;;;6108759;29;20488;-68
2022/09/20 08:04:19;;;;;;;1.13;0.90;;;17.10;70.80;;;;;;6108996;29;20473;-67
2022/09/20 08:07:23;;;;;;;2.20;1.10;;;19.00;68.50;;;;;;6108979;29;20247;-68
2022/09/20 08:10:26;;;;;;;2.20;0.80;;;20.50;61.90;;;;;;6108835;29;20567;-69
2022/09/20 08:13:29;;;;;;;1.37;1.07;;;20.60;59.10;;;;;;6108970;29;20236;-67
2022/09/20 08:16:57;;;;;;;2.50;0.97;;;20.90;58.90;;;;;;6108413;29;20249;-68
2022/09/20 08:20:00;;;;;;;3.53;1.13;;;21.60;56.40;;;;;;6108980;29;20232;-67
2022/09/20 08:23:04;;;;;;;2.17;1.13;;;23.00;54.20;;;;;;6108546;29;20299;-68
2022/09/20 08:26:27;;;;;;;1.73;0.50;;;25.60;50.50;;;;;;6109112;29;20236;-67
2022/09/20 08:29:30;;;;;;;1.43;0.40;;;30.00;40.10;;;;;;6109509;29;20235;-69
2022/09/20 08:32:34;;;;;;;0.80;0.40;;;31.30;33.70;;;;;;6108737;28;20629;-73
2022/09/20 08:35:37;;;;;;;1.73;0.70;;;30.60;32.80;;;;;;6107233;29;20220;-71
2022/09/20 08:38:40;;;;;;;0.60;0.30;;;30.10;33.70;;;;;;6130865;28;20227;-73
2022/09/20 08:42:13;;;;;;;1.85;0.50;;;31.70;31.20;;;;;;6130446;29;20263;-73
2022/09/20 08:45:19;;;;;;;2.00;0.35;;;34.80;29.30;;;;;;6104284;29;20653;-74
2022/09/20 08:48:36;;;;;;;1.10;0.75;;;36.60;27.30;;;;;;6114450;29;20270;-69
2022/09/20 08:51:41;;;;;;;0.73;0.30;;;38.80;24.80;;;;;;6123800;29;20225;-70
2022/09/20 08:54:45;;;;;;;0.77;0.50;;;39.90;23.00;;;;;;6107166;28;20240;-70
2022/09/20 08:57:50;;;;;;;0.70;0.50;;;41.40;21.30;;;;;;6107043;29;20283;-70
2022/09/20 09:00:57;;;;;;;1.88;0.30;;;41.30;20.70;;;;;;6104544;29;20242;-70
2022/09/20 09:04:13;;;;;;;0.90;0.40;;;39.80;20.60;;;;;;6107160;29;20238;-70
2022/09/20 09:07:20;;;;;;;0.70;0.38;;;36.80;21.70;;;;;;6106067;29;20243;-69
2022/09/20 09:10:23;;;;;;;0.70;0.40;;;32.80;23.90;;;;;;6107655;29;20238;-70
2022/09/20 09:13:33;;;;;;;0.80;0.50;;;29.50;27.00;;;;;;6106702;29;20576;-69
2022/09/20 09:16:36;;;;;;;0.73;0.40;;;27.10;29.30;;;;;;6107141;29;20224;-70
2022/09/20 09:19:49;;;;;;;0.90;0.40;;;27.10;31.00;;;;;;6104955;28;20367;-69
2022/09/20 09:23:01;;;;;;;1.10;0.40;;;31.90;28.40;;;;;;6106646;29;20231;-69
2022/09/20 09:26:05;;;;;;;0.88;0.35;;;33.90;25.00;;;;;;6105370;29;20236;-69
2022/09/20 09:29:15;;;;;;;0.60;0.20;;;35.90;24.10;;;;;;6106837;29;20234;-69
2022/09/20 09:32:26;;;;;;;2.25;0.20;;;35.30;23.20;;;;;;6106854;29;20236;-69
2022/09/20 09:35:31;;;;;;;1.20;0.35;;;35.30;23.50;;;;;;6106849;29;20232;-70
2022/09/20 09:38:36;;;;;;;0.93;0.20;;;37.20;21.70;;;;;;6106998;29;20725;-69
2022/09/20 09:41:39;;;;;;;0.80;0.32;;;37.00;20.60;;;;;;6106458;29;20246;-69
2022/09/20 09:44:43;;;;;;;0.70;0.30;;;35.30;21.70;;;;;;6106326;29;20247;-69
2022/09/20 09:47:46;;;;;;;0.60;0.30;;;33.10;23.50;;;;;;6106165;29;20243;-68
2022/09/20 09:50:52;;;;;;;0.60;0.20;;;30.50;25.70;;;;;;6104235;28;20231;-69
2022/09/20 09:53:56;;;;;;;1.40;0.23;;;29.10;27.30;;;;;;6108113;29;20196;-69
2022/09/20 09:57:20;;;;;;;0.50;0.20;;;28.90;28.40;;;;;;6128197;29;20277;-69
2022/09/20 10:00:25;;;;;;;0.80;0.28;;;30.70;27.10;;;;;;6097755;28;20238;-70
2022/09/20 10:03:47;;;;;;;0.60;0.20;;;34.40;23.70;;;;;;6137520;28;20227;-69
2022/09/20 10:06:57;;;;;;;0.60;0.20;;;36.70;21.50;;;;;;6138296;28;20242;-70
2022/09/20 10:10:09;;;;;;;0.65;0.28;;;39.20;20.20;;;;;;6128392;28;20232;-70
2022/09/20 10:13:18;;;;;;;0.85;0.40;;;39.70;19.60;;;;;;6103528;29;20228;-70
2022/09/20 10:16:33;;;;;;;0.60;0.30;;;40.90;18.80;;;;;;6105381;29;20238;-69
2022/09/20 10:19:53;;;;;;;0.50;0.20;;;40.40;18.40;;;;;;6106070;28;20236;-71
2022/09/20 10:23:06;;;;;;;0.82;0.30;;;39.80;18.90;;;;;;6106044;29;20345;-71
2022/09/20 10:27:14;;;;;;;0.50;0.20;;;39.30;19.40;;;;;;6106108;28;20599;-71
2022/09/20 10:30:22;;;;;;;0.70;0.40;;;37.80;19.90;;;;;;6129316;28;20231;-65
2022/09/20 10:33:36;;;;;;;0.60;0.30;;;36.90;20.20;;;;;;6207712;23;20312;-67
2022/09/20 10:36:49;;;;;;;0.60;0.30;;;35.90;21.10;;;;;;6200982;28;20237;-66
2022/09/20 10:40:06;;;;;;;0.90;0.45;;;34.70;21.70;;;;;;6208910;28;20566;-67
2022/09/20 10:43:20;;;;;;;0.60;0.28;;;33.50;22.50;;;;;;6212540;28;20222;-68
2022/09/20 10:46:34;;;;;;;0.63;0.30;;;32.10;23.20;;;;;;6219890;28;20247;-68
2022/09/20 10:49:42;;;;;;;0.60;0.20;;;30.60;24.70;;;;;;6224931;28;20228;-67
2022/09/20 10:53:05;;;;;;;1.58;1.40;;;29.20;26.00;;;;;;6219751;28;20695;-67
2022/09/20 10:56:22;;;;;;;0.70;0.30;;;28.60;27.10;;;;;;6225061;28;20317;-67
2022/09/20 10:59:46;;;;;;;0.70;0.50;;;28.20;27.10;;;;;;6204919;28;20241;-66
2022/09/20 11:03:03;;;;;;;0.70;0.30;;;27.10;28.30;;;;;;6194828;28;20233;-67
2022/09/20 11:06:16;;;;;;;0.70;0.30;;;26.20;28.40;;;;;;6200875;28;20296;-68
2022/09/20 11:09:21;;;;;;;1.27;0.40;;;25.30;29.60;;;;;;6200948;28;20233;-68
2022/09/20 11:12:33;;;;;;;0.60;0.20;;;24.30;31.60;;;;;;6200784;28;20229;-67
2022/09/20 11:15:42;;;;;;;1.67;0.53;;;23.80;32.20;;;;;;6200565;28;20236;-65
2022/09/20 11:18:51;;;;;;;0.57;0.27;;;23.60;32.80;;;;;;6200713;28;20240;-66
2022/09/20 11:22:01;;;;;;;0.50;0.30;;;22.90;33.80;;;;;;6200555;28;20693;-67
2022/09/20 11:25:12;;;;;;;1.10;0.40;;;21.70;35.40;;;;;;6200734;28;20233;-67
2022/09/20 11:28:29;;;;;;;0.93;0.30;;;20.80;36.50;;;;;;6200840;28;20230;-67
2022/09/20 11:31:38;;;;;;;1.03;0.50;;;20.30;36.60;;;;;;6204717;28;20302;-66
2022/09/20 11:34:49;;;;;;;0.50;0.30;;;20.00;37.10;;;;;;6205870;28;20237;-64
2022/09/20 11:38:03;;;;;;;0.50;0.40;;;19.60;37.30;;;;;;6205531;28;20233;-67
2022/09/20 11:41:11;;;;;;;0.57;0.40;;;19.90;37.90;;;;;;6205174;28;20257;-66
2022/09/20 11:44:19;;;;;;;0.50;0.40;;;21.40;37.00;;;;;;6204825;28;20607;-68
2022/09/20 11:47:26;;;;;;;0.80;0.30;;;23.40;34.50;;;;;;6204841;28;20230;-67
2022/09/20 11:51:25;;;;;;;0.60;0.50;;;24.40;32.30;;;;;;6204176;28;20721;-67
2022/09/20 11:54:54;;;;;;;0.70;0.43;;;23.70;31.30;;;;;;6203141;28;20229;-66
2022/09/20 11:58:03;;;;;;;1.13;0.70;;;22.80;32.90;;;;;;6199950;28;20240;-66
2022/09/20 12:01:12;;;;;;;1.67;0.40;;;21.70;34.50;;;;;;6204473;28;20667;-66
2022/09/20 12:04:21;;;;;;;2.00;0.70;;;21.00;37.60;;;;;;6204382;28;20563;-66
2022/09/20 12:07:43;;;;;;;1.00;0.30;;;21.20;40.00;;;;;;6180111;28;20630;-66
2022/09/20 12:10:56;;;;;;;1.40;0.43;;;21.50;36.90;;;;;;6180002;28;20266;-65
2022/09/20 12:14:04;;;;;;;1.83;0.53;;;21.60;36.70;;;;;;6180513;28;20227;-66
2022/09/20 12:17:50;;;;;;;0.50;0.30;;;22.30;35.50;;;;;;6180190;28;20230;-67
2022/09/20 12:21:07;;;;;;;0.60;0.30;;;22.20;35.10;;;;;;6179527;28;20273;-66
2022/09/20 12:24:20;;;;;;;1.00;0.60;;;21.80;35.30;;;;;;6179783;28;20574;-67
2022/09/20 12:27:57;;;;;;;0.70;0.47;;;22.60;36.10;;;;;;6179794;28;20226;-66
2022/09/20 12:31:31;;;;;;;0.60;0.40;;;23.50;34.30;;;;;;6180463;28;20321;-65
2022/09/20 12:34:36;;;;;;;1.23;0.43;;;23.10;34.30;;;;;;6204105;28;20222;-65
2022/09/20 12:37:39;;;;;;;0.50;0.40;;;22.60;34.50;;;;;;6203651;28;20230;-66
2022/09/20 12:40:58;;;;;;;0.70;0.40;;;22.20;35.40;;;;;;6203409;28;20230;-64
2022/09/20 12:44:07;;;;;;;0.90;0.50;;;21.60;35.90;;;;;;6203478;28;20682;-66
2022/09/20 12:47:18;;;;;;;0.80;0.43;;;21.10;36.90;;;;;;6203389;28;20238;-66
2022/09/20 12:53:44;;;;;;;1.17;0.60;;;20.60;37.80;;;;;;6203408;28;20234;-66
2022/09/20 12:56:47;;;;;;;0.60;0.40;;;20.30;37.70;;;;;;6203070;28;20233;-65
2022/09/20 12:59:57;;;;;;;0.73;0.50;;;19.90;39.80;;;;;;6201184;28;20213;-66
2022/09/20 13:03:10;;;;;;;1.40;0.60;;;19.90;39.40;;;;;;6203656;28;20254;-66
2022/09/20 13:06:24;;;;;;;1.47;0.47;;;20.30;39.80;;;;;;6203494;28;20229;-66
2022/09/20 13:09:28;;;;;;;1.63;0.60;;;20.90;38.80;;;;;;6203162;28;20241;-67
2022/09/20 13:12:32;;;;;;;0.77;0.40;;;22.00;38.30;;;;;;6202997;28;20592;-67
2022/09/20 13:15:38;;;;;;;0.50;0.40;;;22.50;36.20;;;;;;6203079;28;20697;-68
2022/09/20 13:18:42;;;;;;;0.73;0.40;;;22.30;36.00;;;;;;6203523;28;20236;-67
2022/09/20 13:21:53;;;;;;;1.13;0.40;;;21.90;36.50;;;;;;6202998;28;20233;-66
2022/09/20 13:24:59;;;;;;;1.00;0.50;;;21.30;36.90;;;;;;6202412;28;20230;-67
2022/09/20 13:28:09;;;;;;;3.50;0.60;;;20.90;38.40;;;;;;6202796;28;20238;-67
2022/09/20 13:31:34;;;;;;;0.70;0.50;;;20.60;38.40;;;;;;6202226;28;20238;-66
2022/09/20 13:34:37;;;;;;;1.73;0.40;;;20.20;39.10;;;;;;6202234;28;20229;-67
2022/09/20 13:37:50;;;;;;;1.53;0.47;;;20.20;39.10;;;;;;6202366;28;20233;-68
2022/09/20 13:40:58;;;;;;;0.67;0.30;;;20.10;39.00;;;;;;6201992;28;20241;-66
2022/09/20 13:44:02;;;;;;;0.50;0.30;;;20.10;39.60;;;;;;6202217;28;20225;-67
2022/09/20 13:50:34;;;;;;;0.50;0.30;;;20.10;39.20;;;;;;6258143;27;1281756;-67
2022/09/20 13:53:37;;;;;;;0.60;0.40;;;19.60;39.70;;;;;;6295585;28;20972;-67
2022/09/20 13:56:44;;;;;;;0.50;0.30;;;19.40;39.00;;;;;;6296036;28;20238;-68
2022/09/20 13:59:48;;;;;;;0.50;0.30;;;19.20;39.80;;;;;;6295585;28;20227;-68
2022/09/20 14:02:53;;;;;;;0.50;0.40;;;19.00;40.80;;;;;;6295476;28;20658;-68
2022/09/20 14:06:00;;;;;;;0.50;0.40;;;19.10;42.00;;;;;;6295632;28;20222;-67
2022/09/20 14:09:07;;;;;;;0.60;0.40;;;19.10;39.70;;;;;;6296073;28;20215;-66
2022/09/20 14:12:14;;;;;;;0.60;0.30;;;19.10;40.60;;;;;;6295698;28;20231;-70
2022/09/20 14:15:17;;;;;;;0.57;0.40;;;19.10;41.30;;;;;;6295820;28;20227;-71
2022/09/20 14:18:22;;;;;;;0.77;0.30;;;19.10;39.90;;;;;;6295451;28;20231;-70
2022/09/20 14:21:28;;;;;;;0.67;0.40;;;19.10;40.60;;;;;;6295421;28;20238;-68
2022/09/20 14:24:34;;;;;;;0.63;0.40;;;19.20;40.00;;;;;;6294663;28;20258;-66
2022/09/20 14:27:37;;;;;;;1.63;0.37;;;19.10;39.70;;;;;;6294617;28;20659;-70
2022/09/20 14:30:41;;;;;;;0.80;0.50;;;18.90;40.80;;;;;;6295029;28;20243;-67
2022/09/20 14:33:48;;;;;;;1.23;0.50;;;18.90;41.40;;;;;;6296857;28;20227;-66
2022/09/20 14:37:06;;;;;;;1.63;0.87;;;18.90;41.10;;;;;;6294920;28;20563;-67
2022/09/20 14:40:22;;;;;;;0.73;0.60;;;18.80;40.00;;;;;;6294566;28;20238;-66
2022/09/20 14:43:30;;;;;;;0.80;0.60;;;18.60;40.70;;;;;;6294334;28;20227;-67
2022/09/20 14:46:37;;;;;;;1.40;0.50;;;18.40;40.70;;;;;;6295000;28;20289;-67
2022/09/20 14:49:42;;;;;;;1.03;0.50;;;18.40;41.00;;;;;;6294310;28;20242;-67
2022/09/20 14:52:47;;;;;;;1.40;0.50;;;18.40;40.70;;;;;;6294711;28;20246;-67
2022/09/20 14:55:58;;;;;;;0.63;0.50;;;18.40;41.10;;;;;;6294063;28;20574;-66
2022/09/20 14:59:23;;;;;;;0.90;0.50;;;18.60;40.40;;;;;;6290825;28;20582;-68
2022/09/20 15:02:27;;;;;;;0.80;0.60;;;18.60;39.90;;;;;;6269413;28;20232;-68
2022/09/20 15:05:30;;;;;;;0.80;0.60;;;18.60;39.90;;;;;;6277640;28;20303;-68
2022/09/20 15:08:35;;;;;;;1.00;0.57;;;18.50;40.20;;;;;;6272668;28;20228;-67
2022/09/20 15:11:39;;;;;;;0.70;0.40;;;18.60;40.90;;;;;;6276752;28;20235;-68
2022/09/20 15:14:43;;;;;;;1.10;0.70;;;18.60;41.00;;;;;;6276355;28;20242;-68
2022/09/20 15:17:47;;;;;;;0.80;0.53;;;18.60;40.90;;;;;;6277339;28;20235;-67
2022/09/20 15:20:50;;;;;;;1.03;0.50;;;18.50;42.10;;;;;;6277952;28;20228;-67
2022/09/20 15:23:55;;;;;;;0.93;0.50;;;18.40;41.80;;;;;;6277870;28;20547;-68
2022/09/20 15:26:58;;;;;;;0.80;0.37;;;18.30;42.10;;;;;;6277969;28;20223;-68
2022/09/20 15:30:01;;;;;;;1.53;0.50;;;18.10;42.80;;;;;;6277143;28;20242;-68
2022/09/20 15:33:04;;;;;;;0.40;0.30;;;18.00;42.30;;;;;;6276495;28;20550;-67
2022/09/20 15:36:08;;;;;;;0.80;0.50;;;17.80;42.80;;;;;;6277313;28;20200;-68
2022/09/20 15:39:12;;;;;;;0.47;0.30;;;17.70;43.70;;;;;;6276909;28;20474;-67
2022/09/20 15:42:15;;;;;;;0.80;0.40;;;17.50;44.10;;;;;;6276929;28;20485;-67
2022/09/20 15:45:20;;;;;;;0.50;0.30;;;17.20;44.30;;;;;;6252247;28;20478;-67
2022/09/20 15:48:25;;;;;;;0.80;0.40;;;17.00;44.40;;;;;;6260224;28;20479;-67
2022/09/20 15:51:29;;;;;;;0.87;0.63;;;16.80;49.70;;;;;;6262373;28;20506;-68
2022/09/20 15:54:34;;;;;;;0.63;0.40;;;16.80;47.60;;;;;;6263714;28;20984;-68
2022/09/20 15:57:38;;;;;;;0.60;0.50;;;16.80;46.90;;;;;;6266806;28;20459;-68
2022/09/20 16:00:41;;;;;;;0.70;0.30;;;16.80;46.60;;;;;;6276233;28;20466;-68
2022/09/20 16:03:45;;;;;;;0.93;0.40;;;16.70;45.50;;;;;;6262715;28;20481;-69
2022/09/20 16:06:50;;;;;;;0.40;0.30;;;16.70;46.30;;;;;;6259525;28;20467;-69
2022/09/20 16:09:55;;;;;;;1.07;0.67;;;16.50;46.50;;;;;;6266591;28;20977;-70
2022/09/20 16:12:59;;;;;;;0.80;0.67;;;16.50;47.10;;;;;;6274906;28;20837;-69
2022/09/20 16:16:03;;;;;;;0.70;0.57;;;16.30;47.50;;;;;;6275517;28;20486;-68
2022/09/20 16:19:19;;;;;;;0.83;0.50;;;16.30;48.40;;;;;;6275924;28;20946;-69
2022/09/20 16:22:23;;;;;;;0.50;0.50;;;16.20;48.50;;;;;;6274688;28;20482;-67
2022/09/20 16:25:27;;;;;;;0.40;0.40;;;16.10;48.60;;;;;;6273614;28;20991;-67
2022/09/20 16:28:30;;;;;;;0.50;0.40;;;16.00;48.30;;;;;;6274169;28;20489;-70
2022/09/20 16:31:38;;;;;;;0.70;0.50;;;15.90;48.70;;;;;;6275315;28;20489;-69
2022/09/20 16:34:42;;;;;;;0.50;0.40;;;15.90;48.80;;;;;;6275659;28;20554;-69
2022/09/20 16:37:45;;;;;;;0.70;0.50;;;15.80;48.90;;;;;;6275635;28;20482;-68
2022/09/20 16:40:51;;;;;;;1.23;0.70;;;15.70;49.10;;;;;;6275504;28;20948;-68
2022/09/20 16:43:55;;;;;;;0.90;0.80;;;15.60;49.60;;;;;;6262352;28;20479;-67
2022/09/20 16:46:58;;;;;;;1.50;0.80;;;15.60;50.00;;;;;;6250691;28;20796;-68
2022/09/20 16:50:02;;;;;;;0.70;0.50;;;15.50;50.20;;;;;;6263498;28;21076;-68
2022/09/20 16:53:05;;;;;;;1.03;0.63;;;15.50;50.10;;;;;;6275270;28;20489;-66
2022/09/20 16:56:20;;;;;;;0.70;0.60;;;15.40;50.20;;;;;;6275460;28;20481;-66